Bon Wier, Texas
Current Conditions -  °F | °C
As of 9:15 PM on Saturday 20 Dec 2014 (Local Time) from KDRI Reporting Station
Clear Clear  
Wind Chill: 41°   Ceiling: Unl
Heat Index: 44°   Visibility: 10mi
Dew Point: 42°   Wind: 5mph
Humidity: 93%   Direction: 360°N
Pressure: 30.21"   Gusts: NA
Location:  30.74°N, 93.64°W
Report Text: KDRI 210315Z AUTO 36004KT 10SM CLR 07/06 A3021 RMK AO2 T00660055
Loading
Personal Weather Stations






























Interactive Weather Map New forecast layout! Learn more

10-Day Weather Forecast

Advertisements
Track Severe Weather on mobile